Time;durP1;ratioP1;P1;durP2;ratioP2;P2;SDS_P1;SDS_P2;PMS_P1;PMS_P2;Temp;Humidity;BMP_temperature;BMP_pressure;BME280_temperature;BME280_humidity;BME280_pressure;Samples;Min_cycle;Max_cycle;Signal;HPM_P1;HPM_P2
2023/08/02 00:00:28;;;;;;;1.63;1.20;;;;;;;;;;5006323;28;20185;-85
2023/08/02 00:03:32;;;;;;;4.10;1.40;;;;;;;;;;4995498;28;20205;-85
2023/08/02 00:06:36;;;;;;;2.57;1.30;;;;;;;;;;5017859;28;20189;-84
2023/08/02 00:09:41;;;;;;;2.23;1.33;;;;;;;;;;5005887;28;20517;-85
2023/08/02 00:12:45;;;;;;;1.30;1.20;;;;;;;;;;5005466;28;20177;-85
2023/08/02 00:15:51;;;;;;;4.87;1.80;;;;;;;;;;4995091;28;20209;-85
2023/08/02 00:18:55;;;;;;;1.83;1.30;;;;;;;;;;5016793;28;20221;-85
2023/08/02 00:21:59;;;;;;;2.40;1.40;;;;;;;;;;5005654;28;20190;-85
2023/08/02 00:25:04;;;;;;;1.73;1.43;;;;;;;;;;5005978;28;20182;-85
2023/08/02 00:28:08;;;;;;;3.77;1.40;;;;;;;;;;4995634;28;20217;-85
2023/08/02 00:31:12;;;;;;;3.47;1.60;;;;;;;;;;5006988;28;20173;-85
2023/08/02 00:34:18;;;;;;;3.30;1.40;;;;;;;;;;5006591;28;20185;-85
2023/08/02 00:37:22;;;;;;;3.03;1.30;;;;;;;;;;4995964;28;20170;-85
2023/08/02 00:40:26;;;;;;;2.67;1.30;;;;;;;;;;5006836;28;20177;-85
2023/08/02 00:43:44;;;;;;;2.63;1.57;;;;;;;;;;4995701;28;20181;-85
2023/08/02 00:46:48;;;;;;;2.43;1.30;;;;;;;;;;4995702;28;20178;-84
2023/08/02 00:49:52;;;;;;;4.60;1.50;;;;;;;;;;5015254;28;20201;-85
2023/08/02 00:52:57;;;;;;;1.93;1.40;;;;;;;;;;5006237;28;20185;-85
2023/08/02 00:56:02;;;;;;;3.83;1.40;;;;;;;;;;5018882;28;20214;-85
2023/08/02 00:59:06;;;;;;;3.43;1.47;;;;;;;;;;5038895;22;20224;-80
2023/08/02 01:02:10;;;;;;;4.27;1.67;;;;;;;;;;5032144;28;20519;-80
2023/08/02 01:05:14;;;;;;;1.87;1.50;;;;;;;;;;5043460;28;20180;-80
2023/08/02 01:08:29;;;;;;;1.50;1.20;;;;;;;;;;5020802;28;20180;-80
2023/08/02 01:11:39;;;;;;;1.83;1.30;;;;;;;;;;5031993;28;20528;-79
2023/08/02 01:14:49;;;;;;;2.83;1.77;;;;;;;;;;5031727;28;20528;-80
2023/08/02 01:17:54;;;;;;;2.80;1.47;;;;;;;;;;5020794;28;20200;-80
2023/08/02 01:20:58;;;;;;;1.60;1.30;;;;;;;;;;5031841;28;20190;-80
2023/08/02 01:24:03;;;;;;;2.37;1.57;;;;;;;;;;5031579;28;20172;-80
2023/08/02 01:27:13;;;;;;;2.03;1.33;;;;;;;;;;5042868;28;20196;-80
2023/08/02 01:30:20;;;;;;;4.30;1.77;;;;;;;;;;5031582;28;20219;-80
2023/08/02 01:33:26;;;;;;;2.93;1.60;;;;;;;;;;5031489;28;20184;-80
2023/08/02 01:36:30;;;;;;;4.13;1.50;;;;;;;;;;5020269;28;20220;-80
2023/08/02 01:39:34;;;;;;;3.57;1.80;;;;;;;;;;5031167;28;20220;-80
2023/08/02 01:42:40;;;;;;;3.67;1.70;;;;;;;;;;5020421;28;20199;-80
2023/08/02 01:45:44;;;;;;;2.90;1.50;;;;;;;;;;5020372;28;20631;-80
2023/08/02 01:48:48;;;;;;;4.23;1.70;;;;;;;;;;5031008;28;20216;-80
2023/08/02 01:51:52;;;;;;;2.30;1.40;;;;;;;;;;5031497;28;20188;-80
2023/08/02 01:54:57;;;;;;;4.03;1.70;;;;;;;;;;5031614;28;20184;-80
2023/08/02 01:58:01;;;;;;;8.17;1.47;;;;;;;;;;5020085;28;20172;-80
2023/08/02 02:01:05;;;;;;;2.33;1.87;;;;;;;;;;5031435;28;20177;-81
2023/08/02 02:04:09;;;;;;;1.67;1.40;;;;;;;;;;5031456;28;20175;-80
2023/08/02 02:07:13;;;;;;;2.43;1.60;;;;;;;;;;5042926;28;20172;-80
2023/08/02 02:10:18;;;;;;;5.77;1.50;;;;;;;;;;5020129;28;20223;-80
2023/08/02 02:13:24;;;;;;;5.43;1.57;;;;;;;;;;5042520;28;20176;-80
2023/08/02 02:16:28;;;;;;;2.87;1.60;;;;;;;;;;5030929;28;20208;-80
2023/08/02 02:19:32;;;;;;;1.90;1.50;;;;;;;;;;5031381;28;20544;-80
2023/08/02 02:22:36;;;;;;;3.97;1.87;;;;;;;;;;5031051;28;20630;-80
2023/08/02 02:25:40;;;;;;;2.20;1.70;;;;;;;;;;5030802;28;20634;-80
2023/08/02 02:28:45;;;;;;;2.03;1.77;;;;;;;;;;5031239;28;20212;-80
2023/08/02 02:31:49;;;;;;;3.43;1.80;;;;;;;;;;5042016;28;20184;-80
2023/08/02 02:34:53;;;;;;;5.43;1.63;;;;;;;;;;5042229;28;20623;-80
2023/08/02 02:37:57;;;;;;;2.90;1.70;;;;;;;;;;5019578;28;20177;-80
2023/08/02 02:41:01;;;;;;;2.67;1.50;;;;;;;;;;5030692;28;20180;-80
2023/08/02 02:44:06;;;;;;;2.87;1.60;;;;;;;;;;5019494;28;20181;-80
2023/08/02 02:47:10;;;;;;;2.73;1.83;;;;;;;;;;5053645;28;20204;-80
2023/08/02 02:50:16;;;;;;;3.17;1.97;;;;;;;;;;5030402;28;20559;-80
2023/08/02 02:53:20;;;;;;;2.83;1.80;;;;;;;;;;5019314;28;20523;-80
2023/08/02 02:56:24;;;;;;;2.90;2.07;;;;;;;;;;5041661;28;20208;-80
2023/08/02 02:59:28;;;;;;;2.27;1.70;;;;;;;;;;5029995;28;20689;-80
2023/08/02 03:02:33;;;;;;;2.67;1.83;;;;;;;;;;5029869;28;20180;-80
2023/08/02 03:05:39;;;;;;;3.20;2.17;;;;;;;;;;5030134;28;20183;-80
2023/08/02 03:08:43;;;;;;;7.63;2.03;;;;;;;;;;5018570;28;20215;-80
2023/08/02 03:11:47;;;;;;;7.03;2.07;;;;;;;;;;5053374;28;20192;-80
2023/08/02 03:14:52;;;;;;;3.60;2.23;;;;;;;;;;5040917;28;20204;-80
2023/08/02 03:17:56;;;;;;;3.37;2.20;;;;;;;;;;5018485;28;20670;-80
2023/08/02 03:21:00;;;;;;;3.77;2.10;;;;;;;;;;5030099;28;20180;-80
2023/08/02 03:24:04;;;;;;;4.60;2.20;;;;;;;;;;5041435;28;20180;-80
2023/08/02 03:27:08;;;;;;;3.73;2.30;;;;;;;;;;5029565;28;20172;-80
2023/08/02 03:30:13;;;;;;;3.40;1.80;;;;;;;;;;5041024;28;20219;-80
2023/08/02 03:33:17;;;;;;;4.00;1.97;;;;;;;;;;5053102;28;20195;-80
2023/08/02 03:36:21;;;;;;;2.97;1.93;;;;;;;;;;5040960;28;20228;-80
2023/08/02 03:39:28;;;;;;;4.67;2.40;;;;;;;;;;5029799;28;20207;-80
2023/08/02 03:42:32;;;;;;;3.40;2.37;;;;;;;;;;5041189;28;20176;-80
2023/08/02 03:45:36;;;;;;;4.93;2.70;;;;;;;;;;5053681;28;20176;-80
2023/08/02 03:48:41;;;;;;;3.37;2.30;;;;;;;;;;5041585;28;20215;-80
2023/08/02 03:51:46;;;;;;;2.60;2.00;;;;;;;;;;5019083;28;20516;-80
2023/08/02 03:54:50;;;;;;;4.30;1.90;;;;;;;;;;5029893;28;20180;-80
2023/08/02 03:57:54;;;;;;;3.30;2.60;;;;;;;;;;5041245;28;20659;-80
2023/08/02 04:00:59;;;;;;;4.17;2.10;;;;;;;;;;5018502;28;20210;-80
2023/08/02 04:04:03;;;;;;;3.23;2.20;;;;;;;;;;5029790;28;20176;-80
2023/08/02 04:07:07;;;;;;;4.30;2.57;;;;;;;;;;5052954;28;20176;-80
2023/08/02 04:10:11;;;;;;;6.50;2.70;;;;;;;;;;5040249;28;20216;-80
2023/08/02 04:13:15;;;;;;;3.37;2.50;;;;;;;;;;5016552;28;20196;-81
2023/08/02 04:16:19;;;;;;;6.00;2.53;;;;;;;;;;5039024;28;20212;-80
2023/08/02 04:19:25;;;;;;;4.63;3.27;;;;;;;;;;5027839;28;20208;-80
2023/08/02 04:22:30;;;;;;;4.07;2.60;;;;;;;;;;5007080;28;20667;-80
2023/08/02 04:25:34;;;;;;;5.00;2.50;;;;;;;;;;5032059;28;20201;-80
2023/08/02 04:28:38;;;;;;;3.83;2.60;;;;;;;;;;5037633;28;20216;-80
2023/08/02 04:31:42;;;;;;;3.70;2.87;;;;;;;;;;5021225;28;20200;-80
2023/08/02 04:34:47;;;;;;;4.70;2.87;;;;;;;;;;5043918;28;20635;-80
2023/08/02 04:37:51;;;;;;;3.43;2.73;;;;;;;;;;5032604;28;20227;-80
2023/08/02 04:40:56;;;;;;;4.57;2.57;;;;;;;;;;5032353;28;20200;-80
2023/08/02 04:44:00;;;;;;;3.40;2.40;;;;;;;;;;5017379;28;20579;-80
2023/08/02 04:47:05;;;;;;;5.70;2.83;;;;;;;;;;5024040;28;20172;-80
2023/08/02 04:50:09;;;;;;;5.80;2.70;;;;;;;;;;5023770;28;20212;-80
2023/08/02 04:53:13;;;;;;;5.50;2.70;;;;;;;;;;5024261;28;20173;-80
2023/08/02 04:56:17;;;;;;;6.80;2.30;;;;;;;;;;5001447;28;20180;-80
2023/08/02 04:59:23;;;;;;;3.93;2.53;;;;;;;;;;5001215;28;20232;-80
2023/08/02 05:02:33;;;;;;;4.13;2.43;;;;;;;;;;5012339;28;20181;-80
2023/08/02 05:05:37;;;;;;;3.53;2.73;;;;;;;;;;5012487;28;20201;-80
2023/08/02 05:08:41;;;;;;;4.63;2.60;;;;;;;;;;5024117;28;20528;-79
2023/08/02 05:11:45;;;;;;;6.80;2.90;;;;;;;;;;5001187;28;20536;-80
2023/08/02 05:14:49;;;;;;;5.20;3.20;;;;;;;;;;5024063;28;20181;-80
2023/08/02 05:17:54;;;;;;;3.50;2.80;;;;;;;;;;5035796;28;20228;-80
2023/08/02 05:20:57;;;;;;;5.53;2.73;;;;;;;;;;5012405;28;20204;-80
2023/08/02 05:24:02;;;;;;;3.40;2.53;;;;;;;;;;5024051;28;20508;-80
2023/08/02 05:27:06;;;;;;;5.07;2.80;;;;;;;;;;5024012;28;20177;-80
2023/08/02 05:30:10;;;;;;;3.47;2.67;;;;;;;;;;5001463;28;20212;-80
2023/08/02 05:33:14;;;;;;;3.10;2.40;;;;;;;;;;5012017;28;20181;-80
2023/08/02 05:36:19;;;;;;;3.70;2.50;;;;;;;;;;5012317;28;20181;-80
2023/08/02 05:39:23;;;;;;;2.93;2.40;;;;;;;;;;5023055;28;20560;-80
2023/08/02 05:42:27;;;;;;;3.13;2.37;;;;;;;;;;5011633;28;20196;-80
2023/08/02 05:45:32;;;;;;;3.70;2.50;;;;;;;;;;5023648;28;20215;-80
2023/08/02 05:48:36;;;;;;;5.97;2.97;;;;;;;;;;5018331;28;20215;-80
2023/08/02 05:51:41;;;;;;;4.20;2.60;;;;;;;;;;5023254;28;20181;-80
2023/08/02 05:54:45;;;;;;;4.67;2.80;;;;;;;;;;5022834;28;20201;-80
2023/08/02 05:57:49;;;;;;;4.13;2.80;;;;;;;;;;5011219;28;20217;-80
2023/08/02 06:00:53;;;;;;;6.00;2.60;;;;;;;;;;5011102;28;20173;-80
2023/08/02 06:03:57;;;;;;;2.80;2.20;;;;;;;;;;5010988;28;20193;-80
2023/08/02 06:07:03;;;;;;;5.53;2.77;;;;;;;;;;5022420;28;20177;-80
2023/08/02 06:10:07;;;;;;;6.63;2.80;;;;;;;;;;4999619;28;20703;-80
2023/08/02 06:13:11;;;;;;;6.27;2.43;;;;;;;;;;5021919;28;20200;-80
2023/08/02 06:16:15;;;;;;;3.63;2.40;;;;;;;;;;4999953;28;20176;-80
2023/08/02 06:19:19;;;;;;;3.10;2.30;;;;;;;;;;5021933;28;20212;-80
2023/08/02 06:22:23;;;;;;;4.27;2.33;;;;;;;;;;5010782;28;20181;-80
2023/08/02 06:25:28;;;;;;;3.80;2.50;;;;;;;;;;5010633;28;20196;-80
2023/08/02 06:28:32;;;;;;;3.50;2.60;;;;;;;;;;5021981;28;20220;-80
2023/08/02 06:31:36;;;;;;;3.43;2.17;;;;;;;;;;5010611;28;20513;-80
2023/08/02 06:34:40;;;;;;;4.53;2.30;;;;;;;;;;5010543;28;20193;-80
2023/08/02 06:37:44;;;;;;;3.07;2.10;;;;;;;;;;5021588;28;20224;-80
2023/08/02 06:40:49;;;;;;;6.90;2.57;;;;;;;;;;5034185;28;20192;-80
2023/08/02 06:43:53;;;;;;;3.20;2.37;;;;;;;;;;5021370;28;20230;-80
2023/08/02 06:46:57;;;;;;;4.30;2.20;;;;;;;;;;5010333;28;20189;-80
2023/08/02 06:50:02;;;;;;;3.87;2.53;;;;;;;;;;5009573;28;20212;-80
2023/08/02 06:53:06;;;;;;;4.03;2.67;;;;;;;;;;5010219;28;20177;-80
2023/08/02 06:56:15;;;;;;;3.43;2.63;;;;;;;;;;5034342;28;20521;-80
2023/08/02 06:59:19;;;;;;;4.67;2.73;;;;;;;;;;5025677;28;20224;-80
2023/08/02 07:02:22;;;;;;;5.20;2.50;;;;;;;;;;5019440;28;20176;-81
2023/08/02 07:05:29;;;;;;;4.00;2.50;;;;;;;;;;5027154;28;20204;-80
2023/08/02 07:08:33;;;;;;;4.27;2.67;;;;;;;;;;5031228;28;20203;-80
2023/08/02 07:11:38;;;;;;;4.93;2.50;;;;;;;;;;5013939;28;20217;-80
2023/08/02 07:14:43;;;;;;;2.30;2.10;;;;;;;;;;5002952;28;20174;-80
2023/08/02 07:17:48;;;;;;;3.93;2.67;;;;;;;;;;5009244;28;20683;-80
2023/08/02 07:20:52;;;;;;;5.07;2.63;;;;;;;;;;5010936;28;20185;-80
2023/08/02 07:23:56;;;;;;;5.50;2.50;;;;;;;;;;5022012;28;20196;-80
2023/08/02 07:27:00;;;;;;;4.13;2.30;;;;;;;;;;5033022;28;20196;-80
2023/08/02 07:30:05;;;;;;;5.80;2.60;;;;;;;;;;4996094;28;20216;-80
2023/08/02 07:33:10;;;;;;;3.60;2.57;;;;;;;;;;4995708;28;20197;-80
2023/08/02 07:36:16;;;;;;;5.93;2.67;;;;;;;;;;5014185;28;20629;-80
2023/08/02 07:39:20;;;;;;;3.03;2.60;;;;;;;;;;5017286;28;20220;-80
2023/08/02 07:42:24;;;;;;;3.40;2.63;;;;;;;;;;5009945;28;20172;-80
2023/08/02 07:45:29;;;;;;;5.23;2.93;;;;;;;;;;5021165;28;20172;-80
2023/08/02 07:48:33;;;;;;;5.77;2.70;;;;;;;;;;5009419;28;20220;-80
2023/08/02 07:51:37;;;;;;;5.70;2.87;;;;;;;;;;5013358;28;20196;-80
2023/08/02 07:54:41;;;;;;;4.83;2.73;;;;;;;;;;5027238;28;20572;-81
2023/08/02 07:57:45;;;;;;;4.37;2.47;;;;;;;;;;5014626;28;20220;-80
2023/08/02 08:00:50;;;;;;;3.80;2.80;;;;;;;;;;5013829;28;20181;-80
2023/08/02 08:03:54;;;;;;;3.13;2.57;;;;;;;;;;5020231;28;20664;-80
2023/08/02 08:06:58;;;;;;;5.43;2.67;;;;;;;;;;5005401;28;20204;-80
2023/08/02 08:10:02;;;;;;;5.67;2.53;;;;;;;;;;5004839;28;20289;-80
2023/08/02 08:13:07;;;;;;;3.53;2.57;;;;;;;;;;4993545;28;20197;-80
2023/08/02 08:16:11;;;;;;;5.17;3.00;;;;;;;;;;5014320;28;20205;-80
2023/08/02 08:19:15;;;;;;;5.17;2.70;;;;;;;;;;5012798;28;20236;-80
2023/08/02 08:22:21;;;;;;;5.33;2.90;;;;;;;;;;5024505;28;20529;-80
2023/08/02 08:25:25;;;;;;;4.23;2.87;;;;;;;;;;5013545;28;20173;-80
2023/08/02 08:28:29;;;;;;;4.47;2.50;;;;;;;;;;5036813;28;20201;-80
2023/08/02 08:31:33;;;;;;;4.20;3.00;;;;;;;;;;5010640;28;20196;-80
2023/08/02 08:34:37;;;;;;;4.23;2.90;;;;;;;;;;5016999;28;20173;-80
2023/08/02 08:37:41;;;;;;;4.17;2.57;;;;;;;;;;5005460;28;20205;-80
2023/08/02 08:40:52;;;;;;;4.57;3.27;;;;;;;;;;4993712;28;20652;-80
2023/08/02 08:44:00;;;;;;;5.43;2.90;;;;;;;;;;5014897;28;20660;-80
2023/08/02 08:47:06;;;;;;;5.33;2.80;;;;;;;;;;5004790;28;20663;-80
2023/08/02 08:50:10;;;;;;;5.13;3.00;;;;;;;;;;5025818;28;20225;-80
2023/08/02 08:53:19;;;;;;;6.33;4.00;;;;;;;;;;5005301;28;20204;-80
2023/08/02 08:56:24;;;;;;;5.83;3.10;;;;;;;;;;5036130;28;20189;-80
2023/08/02 08:59:29;;;;;;;3.30;2.53;;;;;;;;;;5012161;28;20229;-80
2023/08/02 09:02:33;;;;;;;4.60;3.20;;;;;;;;;;5012353;28;20185;-80
2023/08/02 09:05:39;;;;;;;3.27;2.70;;;;;;;;;;5023754;28;20180;-80
2023/08/02 09:08:47;;;;;;;3.40;2.77;;;;;;;;;;5023909;28;20212;-80
2023/08/02 09:11:51;;;;;;;3.10;2.30;;;;;;;;;;5023090;28;20181;-79
2023/08/02 09:15:04;;;;;;;4.10;3.10;;;;;;;;;;5004098;28;20182;-80
2023/08/02 09:18:08;;;;;;;4.20;2.30;;;;;;;;;;5010772;28;20584;-80
2023/08/02 09:21:15;;;;;;;3.80;2.60;;;;;;;;;;5020788;28;20208;-80
2023/08/02 09:24:31;;;;;;;3.57;2.50;;;;;;;;;;5023277;28;20197;-80
2023/08/02 09:27:35;;;;;;;3.97;2.30;;;;;;;;;;5010013;28;20185;-80
2023/08/02 09:30:40;;;;;;;3.90;2.53;;;;;;;;;;5002353;28;20197;-80
2023/08/02 09:33:49;;;;;;;3.10;2.27;;;;;;;;;;4993003;28;20185;-80
2023/08/02 09:36:53;;;;;;;4.40;2.67;;;;;;;;;;5023580;28;20561;-80
2023/08/02 09:39:58;;;;;;;3.80;2.20;;;;;;;;;;5005911;28;20221;-80
2023/08/02 09:43:03;;;;;;;4.93;2.60;;;;;;;;;;4994332;28;20236;-80
2023/08/02 09:46:23;;;;;;;4.03;2.43;;;;;;;;;;4997920;28;20200;-80
2023/08/02 09:49:27;;;;;;;2.60;2.40;;;;;;;;;;5014876;28;20213;-80
2023/08/02 09:52:31;;;;;;;3.90;2.50;;;;;;;;;;5018358;28;20196;-80
2023/08/02 09:55:36;;;;;;;3.73;2.63;;;;;;;;;;5011468;28;20209;-80
2023/08/02 09:58:41;;;;;;;3.10;2.67;;;;;;;;;;5011222;28;20703;-80
2023/08/02 10:01:48;;;;;;;3.50;2.40;;;;;;;;;;4999338;28;20545;-80
2023/08/02 10:04:57;;;;;;;3.83;2.97;;;;;;;;;;5043850;22;20229;-84
2023/08/02 10:08:02;;;;;;;4.50;2.60;;;;;;;;;;5013540;28;20173;-84
2023/08/02 10:11:07;;;;;;;4.13;2.70;;;;;;;;;;5002216;28;20193;-84
2023/08/02 10:14:13;;;;;;;3.50;2.33;;;;;;;;;;5024408;28;20216;-84
2023/08/02 10:17:18;;;;;;;4.70;2.70;;;;;;;;;;5024559;28;20197;-84
2023/08/02 10:20:23;;;;;;;6.77;2.83;;;;;;;;;;5001775;28;20181;-84
2023/08/02 10:23:28;;;;;;;6.07;2.30;;;;;;;;;;5023075;28;20216;-84
2023/08/02 10:26:33;;;;;;;3.10;2.23;;;;;;;;;;5001468;28;20181;-85
2023/08/02 10:29:38;;;;;;;3.67;2.30;;;;;;;;;;5000333;28;20177;-84
2023/08/02 10:32:42;;;;;;;3.03;2.30;;;;;;;;;;5011881;28;20517;-84
2023/08/02 10:36:04;;;;;;;5.57;2.60;;;;;;;;;;5011477;28;20181;-84
2023/08/02 10:39:08;;;;;;;5.87;2.43;;;;;;;;;;5022330;28;20221;-84
2023/08/02 10:42:17;;;;;;;4.60;2.20;;;;;;;;;;5012021;28;20177;-85
2023/08/02 10:45:21;;;;;;;3.40;2.30;;;;;;;;;;5000576;28;20208;-84
2023/08/02 10:48:26;;;;;;;4.63;2.53;;;;;;;;;;5011891;28;20196;-85
2023/08/02 10:51:33;;;;;;;4.93;2.67;;;;;;;;;;5022879;28;20192;-84
2023/08/02 10:54:38;;;;;;;5.67;2.47;;;;;;;;;;5012952;28;20217;-83
2023/08/02 10:57:54;;;;;;;3.77;2.27;;;;;;;;;;5012109;28;20192;-84
2023/08/02 11:01:10;;;;;;;4.83;2.33;;;;;;;;;;5011964;28;20656;-83
2023/08/02 11:04:14;;;;;;;4.30;2.17;;;;;;;;;;5011755;28;20225;-84
2023/08/02 11:07:21;;;;;;;4.77;2.60;;;;;;;;;;5012012;28;20181;-84
2023/08/02 11:10:25;;;;;;;4.63;2.50;;;;;;;;;;5000631;28;20197;-84
2023/08/02 11:13:41;;;;;;;3.53;2.30;;;;;;;;;;5000442;28;20220;-84
2023/08/02 11:16:46;;;;;;;4.77;2.63;;;;;;;;;;5011765;28;20632;-84
2023/08/02 11:19:51;;;;;;;5.10;2.33;;;;;;;;;;5011398;28;20205;-83
2023/08/02 11:22:55;;;;;;;3.97;2.87;;;;;;;;;;5011583;28;20639;-84
2023/08/02 11:26:07;;;;;;;4.17;2.50;;;;;;;;;;5033945;28;20181;-84
2023/08/02 11:29:11;;;;;;;4.00;2.50;;;;;;;;;;5011517;28;20177;-84
2023/08/02 11:32:15;;;;;;;5.57;2.93;;;;;;;;;;5000827;28;20172;-84
2023/08/02 11:35:20;;;;;;;3.73;2.60;;;;;;;;;;5012177;28;20564;-84
2023/08/02 11:38:25;;;;;;;3.60;2.50;;;;;;;;;;5027030;28;20683;-84
2023/08/02 11:41:29;;;;;;;2.90;2.47;;;;;;;;;;5015877;28;20639;-84
2023/08/02 11:44:33;;;;;;;4.13;2.50;;;;;;;;;;5027606;28;20208;-84
2023/08/02 11:47:38;;;;;;;3.30;2.67;;;;;;;;;;5015594;28;20172;-84
2023/08/02 11:50:43;;;;;;;3.50;2.70;;;;;;;;;;5015531;28;20193;-84
2023/08/02 11:53:48;;;;;;;3.40;2.20;;;;;;;;;;5015361;28;20216;-84
2023/08/02 11:56:53;;;;;;;4.23;2.40;;;;;;;;;;5015907;28;20177;-85
2023/08/02 11:59:59;;;;;;;4.67;2.70;;;;;;;;;;5015168;28;20200;-84
2023/08/02 12:03:11;;;;;;;6.00;2.67;;;;;;;;;;5025977;28;20177;-84
2023/08/02 12:06:16;;;;;;;4.90;3.00;;;;;;;;;;5015117;28;20180;-84
2023/08/02 12:09:39;;;;;;;6.23;2.70;;;;;;;;;;5025646;28;20516;-84
2023/08/02 12:12:43;;;;;;;4.87;2.80;;;;;;;;;;5014805;28;20181;-84
2023/08/02 12:16:10;;;;;;;3.77;2.50;;;;;;;;;;5025938;28;20200;-84
2023/08/02 12:19:14;;;;;;;5.40;2.60;;;;;;;;;;5014756;28;20209;-84
2023/08/02 12:22:19;;;;;;;7.97;2.43;;;;;;;;;;5015045;28;20192;-84
2023/08/02 12:25:23;;;;;;;2.77;2.37;;;;;;;;;;5026202;28;20212;-84
2023/08/02 12:28:44;;;;;;;3.53;2.30;;;;;;;;;;5015176;28;20172;-84
2023/08/02 12:31:48;;;;;;;4.10;2.33;;;;;;;;;;5014717;28;20178;-84
2023/08/02 12:34:52;;;;;;;3.70;2.37;;;;;;;;;;5014870;28;20563;-84
2023/08/02 12:37:56;;;;;;;5.10;2.23;;;;;;;;;;5014795;28;20184;-85
2023/08/02 12:41:03;;;;;;;3.77;2.30;;;;;;;;;;5026025;28;20180;-84
2023/08/02 12:44:07;;;;;;;3.40;2.40;;;;;;;;;;5025249;28;20218;-84
2023/08/02 12:47:11;;;;;;;3.30;2.43;;;;;;;;;;5013531;28;20178;-84
2023/08/02 12:50:15;;;;;;;5.10;2.60;;;;;;;;;;5013903;28;20522;-84
2023/08/02 12:53:19;;;;;;;3.15;2.33;;;;;;;;;;5002136;28;20181;-84
2023/08/02 12:56:23;;;;;;;3.38;2.03;;;;;;;;;;5013306;28;20190;-84
2023/08/02 12:59:27;;;;;;;3.17;2.30;;;;;;;;;;5024558;28;20214;-84
2023/08/02 13:02:31;;;;;;;3.97;2.28;;;;;;;;;;5013615;28;20182;-84
2023/08/02 13:05:36;;;;;;;2.97;2.00;;;;;;;;;;5018903;28;20192;-85
2023/08/02 13:08:40;;;;;;;3.35;2.15;;;;;;;;;;5012852;28;20187;-84
2023/08/02 13:11:44;;;;;;;2.92;2.33;;;;;;;;;;5012846;28;20188;-85
2023/08/02 13:14:48;;;;;;;3.63;1.92;;;;;;;;;;5012814;28;20214;-84
2023/08/02 13:17:53;;;;;;;4.25;1.98;;;;;;;;;;5023683;28;20180;-84
2023/08/02 13:20:57;;;;;;;2.25;1.80;;;;;;;;;;5012213;28;20208;-85
2023/08/02 13:24:01;;;;;;;4.00;1.88;;;;;;;;;;5012356;28;20219;-85
2023/08/02 13:27:05;;;;;;;4.05;1.73;;;;;;;;;;5012170;28;20173;-85
2023/08/02 13:30:10;;;;;;;2.10;1.90;;;;;;;;;;5000700;28;20179;-84
2023/08/02 13:33:14;;;;;;;1.75;1.60;;;;;;;;;;5012175;28;20184;-84
2023/08/02 13:36:18;;;;;;;3.47;1.90;;;;;;;;;;5012527;28;20180;-85
2023/08/02 13:39:23;;;;;;;3.53;1.75;;;;;;;;;;5011887;28;20228;-85
2023/08/02 13:42:28;;;;;;;3.88;1.60;;;;;;;;;;5011929;28;20197;-84
2023/08/02 13:45:32;;;;;;;2.65;1.80;;;;;;;;;;5023185;28;20180;-85
2023/08/02 13:48:36;;;;;;;2.38;1.67;;;;;;;;;;5011519;28;20173;-84
2023/08/02 13:51:40;;;;;;;4.35;2.13;;;;;;;;;;5011367;28;20181;-85
2023/08/02 13:54:44;;;;;;;2.20;1.88;;;;;;;;;;5022616;28;20698;-85
2023/08/02 13:57:48;;;;;;;3.47;1.70;;;;;;;;;;5011401;28;20189;-85
2023/08/02 14:00:52;;;;;;;3.42;1.60;;;;;;;;;;5011115;28;20209;-84
2023/08/02 14:03:56;;;;;;;1.70;1.42;;;;;;;;;;4999831;28;20232;-85
2023/08/02 14:07:00;;;;;;;1.95;1.75;;;;;;;;;;5010911;28;20181;-85
2023/08/02 14:10:04;;;;;;;2.50;2.10;;;;;;;;;;5011209;28;20181;-85
2023/08/02 14:13:09;;;;;;;2.92;2.00;;;;;;;;;;5011127;28;20181;-85
2023/08/02 14:16:13;;;;;;;1.90;1.70;;;;;;;;;;5022204;28;20181;-85
2023/08/02 14:19:17;;;;;;;2.40;1.83;;;;;;;;;;5010921;28;20212;-85
2023/08/02 14:22:21;;;;;;;5.18;1.83;;;;;;;;;;5022071;28;20185;-85
2023/08/02 14:25:25;;;;;;;2.72;1.88;;;;;;;;;;5010698;28;20566;-84
2023/08/02 14:28:29;;;;;;;2.42;1.58;;;;;;;;;;5010581;28;20193;-84
2023/08/02 14:31:34;;;;;;;1.77;1.42;;;;;;;;;;5021856;28;20177;-85
2023/08/02 14:34:38;;;;;;;4.15;1.70;;;;;;;;;;5010548;28;20221;-85
2023/08/02 14:37:42;;;;;;;1.85;1.42;;;;;;;;;;5010711;28;20639;-85
2023/08/02 14:40:46;;;;;;;4.43;1.75;;;;;;;;;;5010429;28;20213;-85
2023/08/02 14:43:50;;;;;;;1.77;1.58;;;;;;;;;;5010338;28;20209;-85
2023/08/02 14:46:54;;;;;;;2.08;1.73;;;;;;;;;;5010500;28;20640;-85
2023/08/02 14:49:58;;;;;;;2.55;1.63;;;;;;;;;;5010316;28;20178;-85
2023/08/02 14:53:02;;;;;;;1.80;1.50;;;;;;;;;;5010177;28;20181;-85
2023/08/02 14:56:06;;;;;;;3.55;1.60;;;;;;;;;;5032777;28;20185;-85
2023/08/02 14:59:10;;;;;;;2.10;1.83;;;;;;;;;;5010217;28;20181;-85
2023/08/02 15:02:14;;;;;;;2.05;1.73;;;;;;;;;;5010070;28;20176;-85
2023/08/02 15:05:19;;;;;;;2.08;1.70;;;;;;;;;;5009948;28;20224;-85
2023/08/02 15:08:24;;;;;;;3.42;1.52;;;;;;;;;;5010200;28;20185;-85
2023/08/02 15:11:28;;;;;;;2.17;1.48;;;;;;;;;;5009810;28;20169;-85
2023/08/02 15:14:32;;;;;;;3.88;1.52;;;;;;;;;;5016383;28;20216;-85
2023/08/02 15:17:37;;;;;;;2.03;1.50;;;;;;;;;;5001538;28;20205;-85
2023/08/02 15:20:42;;;;;;;2.40;1.60;;;;;;;;;;4990407;28;20221;-85
2023/08/02 15:23:47;;;;;;;1.70;1.60;;;;;;;;;;4990424;28;20217;-85
2023/08/02 15:26:51;;;;;;;1.98;1.70;;;;;;;;;;5001447;28;20198;-85
2023/08/02 15:29:56;;;;;;;1.67;1.58;;;;;;;;;;5001425;28;20201;-85
2023/08/02 15:33:00;;;;;;;2.70;1.90;;;;;;;;;;4990352;28;20661;-85
2023/08/02 15:36:04;;;;;;;1.92;1.50;;;;;;;;;;4990257;28;20182;-85
2023/08/02 15:39:08;;;;;;;5.25;2.03;;;;;;;;;;4990248;28;20178;-85
2023/08/02 15:42:13;;;;;;;4.45;1.60;;;;;;;;;;4990262;28;20517;-85
2023/08/02 15:45:17;;;;;;;3.03;1.48;;;;;;;;;;5001268;28;20212;-85
2023/08/02 15:48:21;;;;;;;1.73;1.50;;;;;;;;;;4989936;28;20174;-85
2023/08/02 15:51:25;;;;;;;2.58;1.70;;;;;;;;;;4989946;28;20181;-85
2023/08/02 15:54:29;;;;;;;2.85;1.83;;;;;;;;;;4990146;28;20213;-85
2023/08/02 15:57:33;;;;;;;2.55;1.90;;;;;;;;;;5001335;28;20185;-85
2023/08/02 16:00:37;;;;;;;1.58;1.20;;;;;;;;;;5001340;28;20208;-85
2023/08/02 16:03:42;;;;;;;3.05;1.70;;;;;;;;;;5006355;22;20225;31
2023/08/02 16:06:47;;;;;;;2.22;1.65;;;;;;;;;;4945254;29;20214;-80
2023/08/02 16:09:51;;;;;;;3.97;1.80;;;;;;;;;;4955720;29;20201;-80
2023/08/02 16:12:55;;;;;;;2.30;1.88;;;;;;;;;;4932287;29;20203;-80
2023/08/02 16:15:59;;;;;;;2.72;1.92;;;;;;;;;;4953864;29;20219;-80
2023/08/02 16:19:03;;;;;;;4.28;2.10;;;;;;;;;;4943800;29;20189;-80
2023/08/02 16:22:07;;;;;;;3.22;1.75;;;;;;;;;;4956800;28;20178;-80
2023/08/02 16:25:11;;;;;;;3.33;1.88;;;;;;;;;;4946512;29;20231;-80
2023/08/02 16:28:16;;;;;;;2.13;1.77;;;;;;;;;;4946536;29;20187;-80
2023/08/02 16:31:20;;;;;;;5.63;2.10;;;;;;;;;;4946885;29;20182;-81
2023/08/02 16:34:24;;;;;;;2.78;2.00;;;;;;;;;;4961137;29;20226;-80
2023/08/02 16:37:28;;;;;;;3.45;1.77;;;;;;;;;;4961495;29;20189;-80
2023/08/02 16:40:32;;;;;;;6.38;1.90;;;;;;;;;;4958419;29;20200;-80
2023/08/02 16:43:36;;;;;;;4.10;1.80;;;;;;;;;;4935184;29;20193;-79
2023/08/02 16:46:40;;;;;;;4.30;1.92;;;;;;;;;;4935234;29;20181;-80
2023/08/02 16:49:44;;;;;;;6.15;2.10;;;;;;;;;;4956961;29;20519;-81
2023/08/02 16:52:48;;;;;;;2.90;2.03;;;;;;;;;;4957461;29;20635;-81
2023/08/02 16:55:53;;;;;;;3.57;2.30;;;;;;;;;;4957430;29;20213;-81
2023/08/02 16:58:56;;;;;;;2.43;2.17;;;;;;;;;;4945804;29;20179;-80
2023/08/02 17:02:01;;;;;;;4.00;1.80;;;;;;;;;;4947396;29;20209;-81
2023/08/02 17:05:05;;;;;;;5.00;2.50;;;;;;;;;;4949773;29;20237;-81
2023/08/02 17:08:10;;;;;;;2.50;2.00;;;;;;;;;;4960089;29;20185;-80
2023/08/02 17:11:14;;;;;;;4.70;2.13;;;;;;;;;;4947734;29;20178;-80
2023/08/02 17:14:18;;;;;;;2.50;2.13;;;;;;;;;;4957233;29;20732;-80
2023/08/02 17:17:22;;;;;;;4.43;2.00;;;;;;;;;;4956551;29;20632;-84
2023/08/02 17:20:29;;;;;;;3.37;2.30;;;;;;;;;;4945404;29;20205;-84
2023/08/02 17:23:33;;;;;;;2.83;2.10;;;;;;;;;;4957242;29;20189;-84
2023/08/02 17:26:38;;;;;;;3.03;2.20;;;;;;;;;;4956844;29;20665;-84
2023/08/02 17:29:42;;;;;;;2.50;2.30;;;;;;;;;;4956684;29;20202;-84
2023/08/02 17:32:46;;;;;;;5.03;2.20;;;;;;;;;;4956559;28;20181;-84
2023/08/02 17:35:50;;;;;;;4.87;2.17;;;;;;;;;;4956392;29;20211;-84
2023/08/02 17:38:54;;;;;;;2.47;2.03;;;;;;;;;;4945540;29;20188;-84
2023/08/02 17:42:01;;;;;;;2.80;2.27;;;;;;;;;;4956599;29;20683;-84
2023/08/02 17:45:06;;;;;;;2.80;2.00;;;;;;;;;;4956412;29;20710;-84
2023/08/02 17:48:16;;;;;;;3.73;2.33;;;;;;;;;;4945849;29;20181;-84
2023/08/02 17:51:20;;;;;;;2.40;2.20;;;;;;;;;;4945374;29;20172;-84
2023/08/02 17:54:24;;;;;;;3.03;2.43;;;;;;;;;;4945037;29;20220;-84
2023/08/02 17:57:28;;;;;;;3.20;2.30;;;;;;;;;;4956384;29;20179;-84
2023/08/02 18:00:37;;;;;;;2.30;2.10;;;;;;;;;;4956069;29;20212;-84
2023/08/02 18:03:44;;;;;;;4.07;2.20;;;;;;;;;;4945115;29;20203;-85
2023/08/02 18:06:49;;;;;;;6.60;2.13;;;;;;;;;;4956250;29;20180;-84
2023/08/02 18:09:53;;;;;;;2.40;1.90;;;;;;;;;;4956019;29;20184;-84
2023/08/02 18:13:00;;;;;;;3.77;2.33;;;;;;;;;;4956392;29;20176;-84
2023/08/02 18:16:06;;;;;;;4.57;2.37;;;;;;;;;;4934376;29;20219;-84
2023/08/02 18:19:10;;;;;;;8.33;2.70;;;;;;;;;;4945440;29;20179;-84
2023/08/02 18:22:14;;;;;;;4.10;2.27;;;;;;;;;;4956037;29;20207;-85
2023/08/02 18:25:19;;;;;;;2.87;2.30;;;;;;;;;;4933890;29;20219;-84
2023/08/02 18:28:24;;;;;;;2.90;2.00;;;;;;;;;;4955375;29;20199;-84